Time;durP1;ratioP1;P1;durP2;ratioP2;P2;SDS_P1;SDS_P2;PMS_P1;PMS_P2;Temp;Humidity;BMP_temperature;BMP_pressure;BME280_temperature;BME280_humidity;BME280_pressure;Samples;Min_cycle;Max_cycle;Signal;HPM_P1;HPM_P2
2022/01/16 00:04:16;;;;;;;52.63;22.90;;;2.30;99.90;;;;;;5099019;28;20078;-61
2022/01/16 00:06:45;;;;;;;53.65;23.30;;;2.20;99.90;;;;;;5099737;28;20047;-61
2022/01/16 00:09:11;;;;;;;51.92;21.67;;;2.20;99.90;;;;;;5098111;28;20036;-61
2022/01/16 00:11:38;;;;;;;51.13;21.70;;;2.10;99.90;;;;;;5102280;28;20042;-60
2022/01/16 00:14:05;;;;;;;54.15;23.42;;;2.20;99.90;;;;;;5119407;28;20036;-61
2022/01/16 00:16:31;;;;;;;53.63;22.15;;;2.10;99.90;;;;;;5119471;28;20088;-61
2022/01/16 00:18:58;;;;;;;54.45;23.48;;;2.20;99.90;;;;;;5101371;28;20089;-61
2022/01/16 00:21:26;;;;;;;57.58;23.35;;;2.20;99.90;;;;;;5118981;28;20511;-61
2022/01/16 00:23:53;;;;;;;59.50;24.95;;;2.20;99.90;;;;;;5119826;28;20723;-61
2022/01/16 00:26:20;;;;;;;53.30;22.65;;;2.10;99.90;;;;;;5119001;28;20429;-60
2022/01/16 00:28:46;;;;;;;55.80;23.67;;;2.20;99.90;;;;;;5071709;28;20048;-61
2022/01/16 00:31:12;;;;;;;56.53;23.45;;;2.20;99.90;;;;;;5098709;28;20047;-61
2022/01/16 00:33:39;;;;;;;57.22;24.35;;;2.10;99.90;;;;;;5080458;28;20080;-61
2022/01/16 00:36:10;;;;;;;53.05;23.83;;;2.00;99.90;;;;;;5099428;28;20044;-61
2022/01/16 00:38:38;;;;;;;61.13;26.50;;;2.10;99.90;;;;;;5098623;28;20048;-61
2022/01/16 00:41:04;;;;;;;61.58;25.52;;;2.10;99.90;;;;;;5081089;28;20429;-61
2022/01/16 00:43:30;;;;;;;58.95;25.35;;;2.10;99.90;;;;;;5098659;28;20082;-61
2022/01/16 00:45:56;;;;;;;63.47;27.25;;;2.20;99.90;;;;;;5098480;28;20592;-61
2022/01/16 00:48:22;;;;;;;61.65;26.85;;;2.10;99.90;;;;;;5098730;28;20048;-61
2022/01/16 00:50:47;;;;;;;61.40;26.25;;;2.10;99.90;;;;;;5098195;28;20032;-61
2022/01/16 00:53:13;;;;;;;68.15;27.00;;;2.20;99.90;;;;;;5081198;28;20055;-61
2022/01/16 00:55:41;;;;;;;68.38;27.92;;;2.10;99.90;;;;;;5098630;28;20108;-61
2022/01/16 00:58:07;;;;;;;64.07;27.10;;;2.30;99.90;;;;;;5099091;28;20040;-61
2022/01/16 01:00:33;;;;;;;67.13;27.45;;;2.20;99.90;;;;;;5080145;28;20044;-61
2022/01/16 01:03:00;;;;;;;64.18;26.83;;;2.20;99.90;;;;;;5098643;28;20040;-61
2022/01/16 01:05:26;;;;;;;62.25;27.63;;;2.40;99.90;;;;;;5080601;28;20047;-61
2022/01/16 01:07:52;;;;;;;67.80;29.35;;;2.30;99.90;;;;;;5098421;28;20040;-61
2022/01/16 01:10:18;;;;;;;64.72;28.98;;;2.40;99.90;;;;;;5098965;28;20041;-61
2022/01/16 01:12:55;;;;;;;65.68;31.55;;;2.40;99.90;;;;;;5080264;28;20078;-61
2022/01/16 01:15:26;;;;;;;61.53;29.50;;;2.50;99.90;;;;;;5098783;28;20052;-61
2022/01/16 01:17:53;;;;;;;74.30;33.35;;;2.40;99.90;;;;;;5098254;28;20051;-61
2022/01/16 01:20:21;;;;;;;69.70;32.40;;;2.30;99.90;;;;;;5080821;28;20105;-61
2022/01/16 01:22:49;;;;;;;68.05;31.42;;;2.20;99.90;;;;;;5084549;28;20044;-61
2022/01/16 01:25:16;;;;;;;61.33;29.45;;;2.30;99.90;;;;;;5083573;28;20071;-61
2022/01/16 01:27:44;;;;;;;65.68;30.67;;;2.30;99.90;;;;;;5102757;28;20113;-61
2022/01/16 01:30:11;;;;;;;62.88;30.85;;;2.40;99.90;;;;;;5102009;28;20051;-61
2022/01/16 01:32:39;;;;;;;67.10;31.83;;;2.40;99.90;;;;;;5084004;28;20062;-61
2022/01/16 01:35:07;;;;;;;65.53;30.55;;;2.20;99.90;;;;;;5102030;28;20050;-61
2022/01/16 01:37:33;;;;;;;65.22;30.98;;;2.40;99.90;;;;;;5102095;28;20051;-61
2022/01/16 01:39:59;;;;;;;66.93;30.58;;;2.40;99.90;;;;;;5102165;28;20048;-61
2022/01/16 01:42:31;;;;;;;70.50;30.60;;;2.40;99.90;;;;;;5101723;28;20044;-61
2022/01/16 01:53:16;;;;;;;68.18;28.02;;;2.50;99.90;;;;;;5102320;28;20036;-62
2022/01/16 01:55:43;;;;;;;63.72;28.65;;;2.50;99.90;;;;;;5083343;28;21086;-62
2022/01/16 01:58:10;;;;;;;70.32;32.13;;;2.50;99.90;;;;;;5102232;28;20036;-61
2022/01/16 02:00:41;;;;;;;69.28;31.35;;;2.50;99.90;;;;;;5083191;28;20075;-61
2022/01/16 02:03:23;;;;;;;69.43;29.27;;;2.50;99.90;;;;;;5101231;28;20044;-61
2022/01/16 02:05:49;;;;;;;67.78;31.55;;;2.50;99.90;;;;;;5101758;28;20083;-61
2022/01/16 02:08:16;;;;;;;74.88;31.58;;;2.50;99.90;;;;;;5099943;28;20047;-61
2022/01/16 02:10:42;;;;;;;68.80;32.03;;;2.50;99.90;;;;;;5083760;28;20050;-61
2022/01/16 02:13:12;;;;;;;75.40;32.45;;;2.50;99.90;;;;;;5100967;28;20571;-61
2022/01/16 02:31:46;;;;;;;74.55;31.67;;;2.40;99.90;;;;;;5080318;28;20045;-61
2022/01/16 02:37:01;;;;;;;79.45;32.55;;;2.50;99.90;;;;;;5080773;28;20108;-61
2022/01/16 02:39:28;;;;;;;77.32;32.28;;;2.40;99.90;;;;;;5080465;28;20060;-61
2022/01/16 02:41:55;;;;;;;75.22;30.35;;;2.40;99.90;;;;;;5080583;28;20066;-61
2022/01/16 02:46:48;;;;;;;81.45;32.30;;;2.50;99.90;;;;;;5080177;28;20135;-61
2022/01/16 02:49:19;;;;;;;77.93;32.78;;;2.30;99.90;;;;;;5062848;28;20037;-61
2022/01/16 02:51:46;;;;;;;87.88;32.15;;;2.40;99.90;;;;;;5080060;28;20052;-61
2022/01/16 02:54:11;;;;;;;83.82;32.50;;;2.40;99.90;;;;;;5080547;28;20095;-62
2022/01/16 02:56:39;;;;;;;79.25;31.88;;;2.40;99.90;;;;;;5080181;28;20044;-61
2022/01/16 02:59:05;;;;;;;81.63;30.52;;;2.40;99.90;;;;;;5062317;28;20037;-61
2022/01/16 03:01:30;;;;;;;89.90;32.67;;;2.40;99.90;;;;;;5045467;28;20070;-61
2022/01/16 03:03:56;;;;;;;83.45;31.77;;;2.40;99.90;;;;;;5061851;28;20040;-61
2022/01/16 03:06:27;;;;;;;79.53;30.27;;;2.30;99.90;;;;;;5062887;28;20091;-61
2022/01/16 03:08:53;;;;;;;87.63;34.55;;;2.30;99.90;;;;;;5061697;28;20047;-61
2022/01/16 03:13:49;;;;;;;95.13;34.78;;;2.30;99.90;;;;;;5100150;28;20044;-61
2022/01/16 03:16:20;;;;;;;83.57;31.20;;;2.30;99.90;;;;;;5081794;28;20051;-61
2022/01/16 03:24:16;;;;;;;81.43;30.77;;;2.40;99.90;;;;;;5112011;28;20059;-62
2022/01/16 03:26:42;;;;;;;86.88;31.60;;;2.40;99.90;;;;;;5120047;28;20059;-62
2022/01/16 03:29:08;;;;;;;83.18;32.40;;;2.30;99.90;;;;;;5086379;28;20127;-62
2022/01/16 03:31:34;;;;;;;83.30;32.63;;;2.30;99.90;;;;;;5100283;28;20509;-61
2022/01/16 03:34:00;;;;;;;86.32;33.70;;;2.30;99.90;;;;;;5099670;28;20073;-62
2022/01/16 03:36:26;;;;;;;86.45;31.45;;;2.40;99.90;;;;;;5082282;28;20052;-61
2022/01/16 03:38:51;;;;;;;80.38;30.95;;;2.40;99.90;;;;;;5064883;28;20323;-61
2022/01/16 03:41:17;;;;;;;89.97;33.42;;;2.50;99.90;;;;;;5081436;28;20549;-61
2022/01/16 03:43:43;;;;;;;82.38;30.40;;;2.40;99.90;;;;;;5099777;28;20586;-61
2022/01/16 03:46:09;;;;;;;82.85;29.45;;;2.50;99.90;;;;;;5099556;28;20047;-61
2022/01/16 03:48:34;;;;;;;78.32;31.52;;;2.60;99.90;;;;;;5099647;28;20074;-61
2022/01/16 03:51:00;;;;;;;75.10;30.77;;;2.60;99.90;;;;;;5080611;28;20516;-61
2022/01/16 03:53:26;;;;;;;80.45;30.08;;;2.40;99.90;;;;;;5081933;28;20044;-61
2022/01/16 03:55:51;;;;;;;90.57;31.00;;;2.40;99.90;;;;;;5064310;28;20266;-61
2022/01/16 03:58:18;;;;;;;82.82;31.27;;;2.80;99.90;;;;;;5081474;28;20104;-61
2022/01/16 04:00:44;;;;;;;85.28;31.70;;;2.50;99.90;;;;;;5099402;28;20093;-61
2022/01/16 04:03:11;;;;;;;83.90;31.17;;;2.50;99.90;;;;;;5099447;28;20122;-61
2022/01/16 04:05:37;;;;;;;84.97;30.75;;;2.50;99.90;;;;;;5099441;28;20052;-60
2022/01/16 04:08:03;;;;;;;81.43;29.70;;;2.50;99.90;;;;;;5099062;28;20028;-61
2022/01/16 04:10:29;;;;;;;82.65;32.58;;;2.60;99.90;;;;;;5081601;28;20055;-61
2022/01/16 04:12:55;;;;;;;88.75;31.10;;;2.60;99.90;;;;;;5095992;28;20058;-61
2022/01/16 04:17:46;;;;;;;88.30;32.30;;;2.50;99.90;;;;;;5119310;28;20518;-60
2022/01/16 04:20:16;;;;;;;89.70;31.50;;;2.50;99.90;;;;;;5100606;28;20036;-61
2022/01/16 04:22:45;;;;;;;91.32;32.63;;;2.60;99.90;;;;;;5119391;28;20040;-60
2022/01/16 04:25:12;;;;;;;94.20;33.63;;;2.60;99.90;;;;;;5119305;28;20047;-60
2022/01/16 04:27:38;;;;;;;95.85;33.05;;;2.60;99.90;;;;;;5098415;28;20122;-60
2022/01/16 04:30:05;;;;;;;101.40;34.78;;;2.70;99.90;;;;;;5080547;28;20052;-60
2022/01/16 04:32:31;;;;;;;103.10;35.60;;;2.60;99.90;;;;;;5099140;28;20083;-60
2022/01/16 04:34:57;;;;;;;93.88;33.42;;;2.70;99.90;;;;;;5099054;28;20044;-60
2022/01/16 04:37:22;;;;;;;93.53;33.53;;;2.60;99.90;;;;;;5063957;28;20040;-61
2022/01/16 04:39:51;;;;;;;95.03;35.22;;;2.60;99.90;;;;;;5080802;28;20097;-61
2022/01/16 04:45:02;;;;;;;94.68;35.08;;;2.90;99.90;;;;;;5099532;28;20173;-61
2022/01/16 04:47:30;;;;;;;91.10;31.20;;;2.80;99.90;;;;;;5080595;28;20032;-61
2022/01/16 04:49:55;;;;;;;96.82;33.70;;;2.90;99.90;;;;;;5098655;28;20486;-61
2022/01/16 04:52:21;;;;;;;105.70;38.33;;;2.90;99.90;;;;;;5080494;28;20048;-61
2022/01/16 04:54:47;;;;;;;96.85;35.58;;;2.90;99.90;;;;;;5080667;28;20063;-61
2022/01/16 04:57:13;;;;;;;100.30;35.72;;;2.90;99.90;;;;;;5103125;28;20040;-61
2022/01/16 04:59:40;;;;;;;109.55;36.58;;;2.90;99.90;;;;;;5102635;28;20051;-61
2022/01/16 05:02:06;;;;;;;101.30;34.42;;;2.90;99.90;;;;;;5103480;28;20032;-61
2022/01/16 05:04:31;;;;;;;97.35;34.97;;;2.90;99.90;;;;;;5084006;28;20087;-61
2022/01/16 05:06:57;;;;;;;100.90;37.03;;;3.00;99.90;;;;;;5102760;28;20129;-61
2022/01/16 05:09:23;;;;;;;103.65;36.30;;;3.00;99.90;;;;;;5102539;28;20128;-61
2022/01/16 05:11:54;;;;;;;102.32;34.75;;;3.00;99.90;;;;;;5084085;28;20614;-62
2022/01/16 05:17:04;;;;;;;100.30;37.20;;;3.10;99.90;;;;;;5102212;28;20040;-62
2022/01/16 05:19:30;;;;;;;106.40;36.30;;;3.10;99.90;;;;;;5102601;28;20044;-61
2022/01/16 05:21:55;;;;;;;102.20;36.15;;;3.10;99.90;;;;;;5083697;28;20062;-60
2022/01/16 05:24:24;;;;;;;112.32;38.70;;;3.10;99.90;;;;;;5089330;28;20084;-61
2022/01/16 05:26:49;;;;;;;127.07;39.17;;;3.00;99.90;;;;;;5082145;28;20462;-61
2022/01/16 05:29:15;;;;;;;113.15;38.30;;;3.10;99.90;;;;;;5081657;28;20118;-61
2022/01/16 05:31:44;;;;;;;119.07;40.30;;;3.00;99.90;;;;;;5082225;28;20059;-61
2022/01/16 05:34:11;;;;;;;117.95;38.38;;;3.00;99.90;;;;;;5081648;28;20056;-61
2022/01/16 05:36:37;;;;;;;109.75;37.63;;;3.10;99.90;;;;;;5064243;28;20052;-61
2022/01/16 05:39:03;;;;;;;113.93;37.55;;;3.20;99.90;;;;;;5081726;28;20048;-61
2022/01/16 05:41:28;;;;;;;117.07;37.83;;;3.10;99.90;;;;;;5081703;28;20036;-61
2022/01/16 05:43:54;;;;;;;128.40;40.88;;;3.10;99.90;;;;;;5081462;28;20104;-61
2022/01/16 05:46:20;;;;;;;128.02;42.60;;;3.20;99.90;;;;;;5063694;28;20114;-62
2022/01/16 05:48:45;;;;;;;126.65;38.35;;;3.10;99.90;;;;;;5064045;28;20098;-61
2022/01/16 05:51:11;;;;;;;145.27;41.10;;;3.20;99.90;;;;;;5081037;28;20139;-61
2022/01/16 05:53:37;;;;;;;135.57;41.47;;;3.20;99.90;;;;;;5063954;28;20096;-61
2022/01/16 05:56:04;;;;;;;127.57;39.78;;;3.10;99.90;;;;;;5046553;28;20092;-62
2022/01/16 05:58:29;;;;;;;131.75;42.78;;;3.20;99.90;;;;;;5063364;28;20040;-60
2022/01/16 06:00:55;;;;;;;130.82;41.55;;;3.30;99.90;;;;;;5081217;28;20048;-61
2022/01/16 06:03:21;;;;;;;124.55;39.45;;;3.10;99.90;;;;;;5081284;28;20028;-61
2022/01/16 06:05:47;;;;;;;126.13;40.08;;;3.30;99.90;;;;;;5063519;28;20066;-60
2022/01/16 06:08:14;;;;;;;125.00;38.45;;;3.30;99.90;;;;;;5061790;28;20040;-61
2022/01/16 06:10:40;;;;;;;131.15;42.35;;;3.30;99.90;;;;;;5081817;28;20052;-61
2022/01/16 06:13:06;;;;;;;147.88;43.25;;;3.40;99.90;;;;;;5079149;28;20045;-60
2022/01/16 06:15:32;;;;;;;128.93;42.20;;;3.40;99.90;;;;;;5063150;28;20048;-60
2022/01/16 06:18:00;;;;;;;139.73;43.85;;;3.30;99.90;;;;;;5081011;28;20049;-61
2022/01/16 06:20:26;;;;;;;116.35;40.85;;;3.30;99.90;;;;;;5062564;28;20040;-61
2022/01/16 06:22:55;;;;;;;123.50;39.97;;;3.40;99.90;;;;;;5063447;28;20048;-61
2022/01/16 06:25:23;;;;;;;136.65;42.72;;;3.50;99.90;;;;;;5080646;28;20068;-61
2022/01/16 06:27:49;;;;;;;131.32;41.40;;;3.50;99.90;;;;;;5062972;28;20166;-61
2022/01/16 06:30:15;;;;;;;125.90;43.20;;;3.50;99.90;;;;;;5062672;28;20037;-62
2022/01/16 06:32:41;;;;;;;130.68;42.42;;;3.50;99.90;;;;;;5080859;28;20040;-62
2022/01/16 06:35:09;;;;;;;129.35;45.53;;;3.50;99.90;;;;;;5080462;28;20585;-62
2022/01/16 06:37:35;;;;;;;133.50;41.17;;;3.60;99.90;;;;;;5080717;28;20051;-61
2022/01/16 06:40:01;;;;;;;126.45;43.53;;;3.70;99.90;;;;;;5080872;28;20070;-62
2022/01/16 06:42:27;;;;;;;128.88;45.33;;;3.50;99.90;;;;;;5080161;28;20064;-61
2022/01/16 06:44:53;;;;;;;130.73;48.00;;;3.70;99.90;;;;;;5062983;28;20075;-62
2022/01/16 06:47:19;;;;;;;122.85;41.42;;;3.70;99.90;;;;;;5061956;28;20048;-61
2022/01/16 06:49:45;;;;;;;122.78;41.85;;;3.70;99.90;;;;;;5062212;28;20078;-61
2022/01/16 06:52:10;;;;;;;130.55;43.10;;;3.70;99.90;;;;;;5061956;28;20499;-61
2022/01/16 06:54:36;;;;;;;121.53;44.05;;;3.70;99.90;;;;;;5080347;28;20073;-61
2022/01/16 06:57:02;;;;;;;127.85;44.95;;;3.80;99.90;;;;;;5062328;28;20637;-62
2022/01/16 06:59:28;;;;;;;124.97;43.38;;;3.80;99.90;;;;;;5062058;28;20040;-61
2022/01/16 07:01:53;;;;;;;125.03;43.00;;;3.70;99.90;;;;;;5046105;28;20040;-61
2022/01/16 07:04:19;;;;;;;123.65;43.20;;;3.80;99.90;;;;;;5079790;28;20051;-61
2022/01/16 07:06:45;;;;;;;128.32;44.30;;;3.80;99.90;;;;;;5080368;28;20072;-60
2022/01/16 07:09:10;;;;;;;135.18;46.92;;;3.80;99.90;;;;;;5061892;28;20029;-61
2022/01/16 07:11:36;;;;;;;128.18;46.15;;;3.80;99.90;;;;;;5061549;28;20045;-60
2022/01/16 07:14:02;;;;;;;127.88;44.70;;;3.80;99.90;;;;;;5061765;28;20064;-61
2022/01/16 07:16:28;;;;;;;132.40;45.30;;;3.80;99.90;;;;;;5079758;28;20032;-60
2022/01/16 07:18:53;;;;;;;117.85;43.58;;;3.80;99.90;;;;;;5061937;28;20044;-60
2022/01/16 07:21:19;;;;;;;123.97;44.85;;;3.90;99.90;;;;;;5079431;28;20040;-60
2022/01/16 07:23:48;;;;;;;120.15;45.30;;;4.00;99.90;;;;;;5062092;28;20111;-59
2022/01/16 07:26:17;;;;;;;125.63;42.92;;;3.90;99.90;;;;;;5077806;28;20056;-60
2022/01/16 07:28:43;;;;;;;114.75;41.42;;;3.90;99.90;;;;;;5061509;28;20044;-62
2022/01/16 07:31:09;;;;;;;111.65;41.75;;;3.90;99.90;;;;;;5079505;28;20044;-60
2022/01/16 07:33:35;;;;;;;119.30;43.28;;;4.00;99.90;;;;;;5078016;28;20105;-60
2022/01/16 07:36:02;;;;;;;120.88;43.00;;;3.90;99.90;;;;;;5078655;28;20037;-61
2022/01/16 07:38:27;;;;;;;112.20;41.13;;;4.00;99.90;;;;;;5077934;28;20108;-61
2022/01/16 07:40:53;;;;;;;112.10;42.70;;;4.00;99.90;;;;;;5079764;28;20070;-61
2022/01/16 07:43:19;;;;;;;111.05;42.88;;;4.10;99.90;;;;;;5078152;28;20045;-61
2022/01/16 07:45:44;;;;;;;98.70;39.03;;;4.00;99.90;;;;;;5079412;28;20449;-61
2022/01/16 07:48:10;;;;;;;101.75;40.83;;;4.10;99.90;;;;;;5078045;28;20044;-61
2022/01/16 07:50:38;;;;;;;98.95;42.45;;;4.10;99.90;;;;;;5079020;28;20425;-61
2022/01/16 07:53:04;;;;;;;97.88;39.70;;;4.20;99.90;;;;;;5095128;28;20082;-61
2022/01/16 07:55:30;;;;;;;88.32;40.72;;;4.20;99.90;;;;;;5077758;28;20036;-61
2022/01/16 07:57:57;;;;;;;83.80;38.42;;;4.20;99.90;;;;;;5078534;28;20215;-61
2022/01/16 08:00:23;;;;;;;76.90;37.67;;;4.20;99.90;;;;;;5060854;28;20048;-61
2022/01/16 08:02:50;;;;;;;82.70;37.88;;;4.20;99.90;;;;;;5079315;28;20041;-61
2022/01/16 08:05:17;;;;;;;83.05;36.22;;;4.30;99.90;;;;;;5077548;28;20048;-61
2022/01/16 08:07:43;;;;;;;83.25;37.70;;;4.80;99.90;;;;;;5079066;28;20041;-61
2022/01/16 08:10:10;;;;;;;76.28;35.45;;;4.40;99.90;;;;;;5079367;28;20055;-61
2022/01/16 08:12:36;;;;;;;83.80;37.20;;;4.40;99.90;;;;;;5078459;28;20044;-60
2022/01/16 08:15:04;;;;;;;79.53;37.70;;;4.40;99.90;;;;;;5078210;28;20242;-61
2022/01/16 08:17:30;;;;;;;77.55;37.15;;;4.70;99.90;;;;;;5077265;28;20056;-61
2022/01/16 08:19:56;;;;;;;72.97;37.33;;;4.40;99.90;;;;;;5077367;28;20531;-61
2022/01/16 08:22:21;;;;;;;78.00;36.17;;;4.40;99.90;;;;;;5078578;28;20036;-62
2022/01/16 08:24:47;;;;;;;76.97;37.70;;;4.60;99.90;;;;;;5078556;28;20170;-62
2022/01/16 08:27:15;;;;;;;74.65;36.85;;;4.60;99.90;;;;;;5079288;28;20044;-61
2022/01/16 08:29:43;;;;;;;73.07;35.53;;;4.60;99.90;;;;;;5077888;28;20086;-62
2022/01/16 08:32:10;;;;;;;66.30;33.13;;;4.50;99.90;;;;;;5079374;28;20045;-62
2022/01/16 08:34:36;;;;;;;71.15;34.70;;;4.60;99.90;;;;;;5078608;28;20040;-62
2022/01/16 08:37:02;;;;;;;80.40;33.92;;;4.50;99.90;;;;;;5060533;28;20104;-62
2022/01/16 08:39:28;;;;;;;69.82;34.85;;;4.60;99.90;;;;;;5078723;28;20145;-62
2022/01/16 08:41:54;;;;;;;66.25;34.30;;;4.60;99.90;;;;;;5060528;28;20036;-62
2022/01/16 08:44:20;;;;;;;67.03;33.60;;;4.60;99.90;;;;;;5061092;28;20082;-62
2022/01/16 08:46:46;;;;;;;60.88;32.08;;;4.60;99.90;;;;;;5060182;28;20510;-62
2022/01/16 08:49:13;;;;;;;66.00;33.35;;;4.70;99.90;;;;;;5078679;28;20036;-62
2022/01/16 08:51:39;;;;;;;67.25;33.75;;;4.70;99.90;;;;;;5078126;28;20048;-62
2022/01/16 08:54:05;;;;;;;60.47;31.05;;;4.60;99.90;;;;;;5060529;28;20037;-62
2022/01/16 08:56:30;;;;;;;64.68;35.53;;;4.70;99.90;;;;;;5043868;28;20600;-61
2022/01/16 08:58:56;;;;;;;64.63;32.75;;;4.70;99.90;;;;;;5078335;28;20211;-62
2022/01/16 09:01:22;;;;;;;57.22;31.05;;;4.70;99.90;;;;;;5060975;28;20040;-62
2022/01/16 09:03:48;;;;;;;65.05;34.28;;;4.70;99.90;;;;;;5060161;28;20060;-61
2022/01/16 09:06:14;;;;;;;61.15;30.60;;;4.80;99.90;;;;;;5078957;28;20029;-61
2022/01/16 09:08:40;;;;;;;61.38;30.80;;;4.80;99.90;;;;;;5078095;28;20090;-61
2022/01/16 09:11:07;;;;;;;58.50;32.13;;;5.00;99.90;;;;;;5043508;28;20084;-61
2022/01/16 09:13:33;;;;;;;57.15;29.45;;;4.80;99.90;;;;;;5040195;28;20049;-61
2022/01/16 09:15:59;;;;;;;56.63;31.63;;;4.80;99.90;;;;;;5023733;28;20525;-61
2022/01/16 09:18:25;;;;;;;54.88;29.90;;;4.90;99.90;;;;;;5058225;28;20041;-61
2022/01/16 09:20:51;;;;;;;59.28;30.55;;;4.90;99.90;;;;;;5057871;28;20041;-61
2022/01/16 09:23:16;;;;;;;57.15;30.75;;;5.00;99.90;;;;;;5040829;28;20091;-61
2022/01/16 09:25:42;;;;;;;51.47;28.17;;;5.00;99.90;;;;;;5051746;28;20052;-61
2022/01/16 09:28:08;;;;;;;56.78;28.48;;;5.10;99.90;;;;;;5064015;28;20063;-61
2022/01/16 09:30:34;;;;;;;53.30;29.67;;;5.10;99.90;;;;;;5077883;28;20076;-61
2022/01/16 09:33:00;;;;;;;53.70;28.95;;;5.10;99.90;;;;;;5076696;28;20100;-61
2022/01/16 09:35:26;;;;;;;51.17;29.00;;;5.00;99.90;;;;;;5060370;28;20059;-61
2022/01/16 09:37:52;;;;;;;49.90;28.10;;;5.20;99.90;;;;;;5078030;28;20037;-61
2022/01/16 09:40:20;;;;;;;50.40;27.23;;;5.10;99.90;;;;;;5078663;28;20576;-62
2022/01/16 09:42:47;;;;;;;50.83;26.45;;;5.20;99.90;;;;;;5079626;28;20151;-61
2022/01/16 09:45:16;;;;;;;49.08;28.40;;;5.30;99.90;;;;;;5080647;28;20045;-61
2022/01/16 09:47:46;;;;;;;54.88;27.92;;;5.20;99.90;;;;;;5081589;28;20067;-61
2022/01/16 09:50:20;;;;;;;46.22;26.77;;;5.20;99.90;;;;;;5080220;28;20036;-61
2022/01/16 09:52:48;;;;;;;53.15;28.48;;;5.30;99.90;;;;;;5080430;28;20044;-60
2022/01/16 09:55:14;;;;;;;52.50;28.92;;;5.40;99.90;;;;;;5081157;28;20144;-61
2022/01/16 09:57:40;;;;;;;50.58;27.63;;;5.40;99.90;;;;;;5082111;28;20044;-61
2022/01/16 10:00:10;;;;;;;52.53;26.40;;;5.40;99.90;;;;;;5080876;28;20044;-62
2022/01/16 10:02:35;;;;;;;60.30;29.38;;;5.50;99.90;;;;;;5080302;28;20094;-62
2022/01/16 10:05:01;;;;;;;49.80;28.65;;;5.50;99.90;;;;;;5081203;28;20048;-62
2022/01/16 10:07:27;;;;;;;49.40;27.98;;;5.50;99.90;;;;;;5081256;28;20049;-62
2022/01/16 10:10:20;;;;;;;51.42;28.98;;;5.60;99.90;;;;;;5080250;28;20577;-62
2022/01/16 10:12:51;;;;;;;52.33;27.08;;;5.70;99.90;;;;;;5076404;28;20048;-61
2022/01/16 10:15:27;;;;;;;50.60;29.52;;;5.70;99.90;;;;;;5081211;28;20037;-61
2022/01/16 10:17:56;;;;;;;55.88;29.10;;;5.70;99.90;;;;;;5080895;28;20044;-62
2022/01/16 10:20:24;;;;;;;52.13;27.30;;;5.70;99.90;;;;;;5080634;28;20052;-62
2022/01/16 10:23:00;;;;;;;50.28;27.45;;;5.80;99.90;;;;;;5080349;28;20048;-61
2022/01/16 10:25:45;;;;;;;49.88;26.83;;;5.90;99.90;;;;;;5080486;28;20109;-62
2022/01/16 10:28:18;;;;;;;55.45;29.67;;;6.10;99.90;;;;;;5080968;28;20079;-62
2022/01/16 10:30:47;;;;;;;55.20;26.85;;;5.90;99.90;;;;;;5080682;28;20086;-62
2022/01/16 10:33:14;;;;;;;47.65;25.70;;;6.00;99.90;;;;;;5080440;28;20042;-62
2022/01/16 10:35:42;;;;;;;49.83;27.10;;;6.00;99.90;;;;;;5080970;28;20060;-61
2022/01/16 10:38:15;;;;;;;50.90;24.67;;;6.10;99.90;;;;;;5062196;28;20048;-60
2022/01/16 10:40:44;;;;;;;55.30;28.65;;;6.10;99.90;;;;;;5046504;28;20571;-62
2022/01/16 10:43:16;;;;;;;44.72;24.38;;;6.20;99.90;;;;;;5080532;28;21036;-61
2022/01/16 10:45:43;;;;;;;43.78;24.50;;;6.30;99.90;;;;;;5080262;28;20052;-62
2022/01/16 10:48:10;;;;;;;52.63;24.73;;;6.30;99.90;;;;;;5062227;28;20040;-63
2022/01/16 10:50:36;;;;;;;41.15;22.40;;;6.30;99.90;;;;;;5079804;28;20044;-63
2022/01/16 10:53:08;;;;;;;47.45;23.55;;;6.20;99.90;;;;;;5080429;28;20124;-62
2022/01/16 10:55:52;;;;;;;42.85;22.73;;;6.30;99.90;;;;;;5062294;28;20044;-62
2022/01/16 10:58:28;;;;;;;42.25;21.52;;;6.30;99.90;;;;;;5080508;28;20090;-63
2022/01/16 11:01:05;;;;;;;39.15;20.13;;;6.30;99.90;;;;;;5080147;28;20052;-62
2022/01/16 11:03:45;;;;;;;37.15;20.70;;;6.20;99.90;;;;;;5061779;28;20041;-61
2022/01/16 11:06:12;;;;;;;38.38;19.92;;;6.20;99.90;;;;;;5080651;28;20745;-62
2022/01/16 11:08:39;;;;;;;36.58;18.27;;;6.30;99.90;;;;;;5079742;28;20040;-62
2022/01/16 11:11:07;;;;;;;39.08;19.92;;;6.30;99.90;;;;;;5080137;28;20076;-63
2022/01/16 11:13:34;;;;;;;35.47;19.42;;;6.40;99.90;;;;;;5098483;28;20048;-61
2022/01/16 11:16:07;;;;;;;39.47;20.20;;;6.40;99.90;;;;;;5099916;28;20097;-62
2022/01/16 11:18:40;;;;;;;35.67;18.55;;;6.40;99.90;;;;;;5100212;28;20052;-61
2022/01/16 11:23:48;;;;;;;33.78;17.88;;;6.50;99.90;;;;;;5100249;28;20052;-61
2022/01/16 11:26:16;;;;;;;31.67;17.65;;;6.50;99.90;;;;;;5119395;28;20052;-62
2022/01/16 11:28:43;;;;;;;32.05;17.13;;;6.50;99.90;;;;;;5107999;28;20074;-61
2022/01/16 11:31:10;;;;;;;35.55;17.02;;;6.40;99.90;;;;;;5099767;28;20126;-62
2022/01/16 11:33:37;;;;;;;31.45;15.80;;;6.50;99.90;;;;;;5099621;28;20048;-62
2022/01/16 11:36:07;;;;;;;30.38;16.25;;;6.50;99.90;;;;;;5100317;28;20481;-60
2022/01/16 11:38:36;;;;;;;30.15;14.38;;;6.50;99.90;;;;;;5099469;28;20101;-60
2022/01/16 11:41:04;;;;;;;28.38;14.15;;;6.50;99.90;;;;;;5081451;28;20048;-61
2022/01/16 11:43:35;;;;;;;30.42;14.23;;;6.50;99.90;;;;;;5099496;28;20104;-60
2022/01/16 11:46:18;;;;;;;27.48;12.43;;;6.50;99.90;;;;;;5081226;28;20048;-60
2022/01/16 11:48:47;;;;;;;25.33;13.77;;;6.60;99.90;;;;;;5099922;28;20119;-61
2022/01/16 11:51:40;;;;;;;27.17;14.48;;;6.60;99.90;;;;;;5064336;28;20040;-60
2022/01/16 11:54:10;;;;;;;25.52;12.68;;;6.60;99.90;;;;;;5081409;28;20070;-61
2022/01/16 11:56:42;;;;;;;23.33;11.75;;;6.60;99.90;;;;;;5099553;28;20047;-61
2022/01/16 11:59:29;;;;;;;25.38;12.10;;;6.60;99.90;;;;;;5099085;28;20052;-62
2022/01/16 12:01:54;;;;;;;21.67;10.40;;;6.60;99.90;;;;;;5099851;28;20083;-61
2022/01/16 12:04:29;;;;;;;24.80;10.93;;;6.60;99.90;;;;;;5098687;28;20040;-61
2022/01/16 12:07:20;;;;;;;18.85;9.30;;;6.60;99.90;;;;;;5098940;28;20052;-61
2022/01/16 12:09:49;;;;;;;20.30;9.65;;;6.70;99.90;;;;;;5099342;28;20050;-62
2022/01/16 12:12:14;;;;;;;23.15;9.90;;;6.70;99.90;;;;;;5106835;28;20053;-62
2022/01/16 12:14:50;;;;;;;18.58;9.20;;;6.70;99.90;;;;;;5120090;28;20063;-61
2022/01/16 12:17:26;;;;;;;21.27;9.20;;;6.70;99.90;;;;;;5100889;28;20126;-62
2022/01/16 12:19:53;;;;;;;17.15;8.30;;;6.70;99.90;;;;;;5118869;28;20043;-62
2022/01/16 12:22:47;;;;;;;19.95;8.50;;;6.70;99.90;;;;;;5119643;28;20043;-62
2022/01/16 12:25:24;;;;;;;22.23;8.57;;;6.70;99.90;;;;;;5100483;28;20083;-62
2022/01/16 12:28:02;;;;;;;20.40;8.70;;;6.70;99.90;;;;;;5079628;28;20051;-62
2022/01/16 12:30:45;;;;;;;19.58;8.57;;;6.70;99.90;;;;;;5098898;28;20074;-62
2022/01/16 12:33:42;;;;;;;21.10;8.38;;;6.70;99.90;;;;;;5080527;28;20086;-62
2022/01/16 12:36:16;;;;;;;21.35;7.82;;;6.70;99.90;;;;;;5099406;28;20050;-62
2022/01/16 12:38:54;;;;;;;22.58;8.23;;;6.70;99.90;;;;;;5098569;28;20081;-62
2022/01/16 12:41:38;;;;;;;19.88;7.82;;;6.70;99.90;;;;;;5098721;28;20044;-62
2022/01/16 12:44:08;;;;;;;21.33;7.93;;;6.70;99.90;;;;;;5081098;28;20071;-62
2022/01/16 12:46:45;;;;;;;24.45;9.02;;;6.70;99.90;;;;;;5080391;28;20040;-62
2022/01/16 12:49:26;;;;;;;18.70;8.20;;;6.70;99.90;;;;;;5098829;28;20091;-62
2022/01/16 12:51:54;;;;;;;17.23;9.10;;;6.70;99.90;;;;;;5098483;28;20107;-61
2022/01/16 12:54:22;;;;;;;18.20;7.65;;;6.70;99.90;;;;;;5080460;28;20040;-62
2022/01/16 12:56:50;;;;;;;18.73;8.35;;;6.70;99.90;;;;;;5098788;28;20037;-62
2022/01/16 12:59:30;;;;;;;21.05;7.93;;;6.70;99.90;;;;;;5098409;28;20089;-61
2022/01/16 13:01:57;;;;;;;15.85;7.53;;;6.70;99.90;;;;;;5099287;28;20092;-61
2022/01/16 13:04:30;;;;;;;17.40;8.32;;;6.80;99.90;;;;;;5080192;28;20096;-61
2022/01/16 13:07:02;;;;;;;16.73;7.82;;;6.70;99.90;;;;;;5098332;28;20048;-61
2022/01/16 13:09:28;;;;;;;;;;;6.70;99.90;;;;;;5080974;28;20078;-61
2022/01/16 13:11:58;;;;;;;19.95;7.72;;;6.70;99.90;;;;;;5084881;28;19924;-61
2022/01/16 13:14:27;;;;;;;21.00;9.35;;;6.70;99.90;;;;;;5119430;28;20097;-61
2022/01/16 13:16:59;;;;;;;20.17;8.20;;;6.70;99.90;;;;;;5101960;28;20753;-62
2022/01/16 13:22:37;;;;;;;22.93;9.00;;;6.60;99.90;;;;;;5059673;28;20447;-61
2022/01/16 13:25:07;;;;;;;22.63;8.45;;;6.70;99.90;;;;;;5108810;28;20402;-61
2022/01/16 13:27:41;;;;;;;17.35;7.65;;;6.70;99.90;;;;;;5120971;28;20071;-61
2022/01/16 13:30:23;;;;;;;16.80;7.45;;;6.70;99.90;;;;;;5101667;28;20453;-62
2022/01/16 13:32:49;;;;;;;27.95;8.77;;;6.70;99.90;;;;;;5066918;28;20507;-62
2022/01/16 13:35:28;;;;;;;17.10;8.25;;;6.70;99.90;;;;;;5101962;28;20489;-62